sensor_id;sensor_type;location;lat;lon;timestamp;P1;durP1;ratioP1;P2;durP2;ratioP2
73919;SDS011;62266;53.348;-1.496;2023-05-20T00:00:46;18.05;;;9.43;;
73919;SDS011;62266;53.348;-1.496;2023-05-20T00:03:40;20.15;;;9.07;;
73919;SDS011;62266;53.348;-1.496;2023-05-20T00:06:27;16.50;;;9.37;;
73919;SDS011;62266;53.348;-1.496;2023-05-20T00:09:13;18.63;;;9.43;;
73919;SDS011;62266;53.348;-1.496;2023-05-20T00:11:59;21.83;;;9.13;;
73919;SDS011;62266;53.348;-1.496;2023-05-20T00:14:44;22.80;;;9.68;;
73919;SDS011;62266;53.348;-1.496;2023-05-20T00:17:30;17.35;;;9.57;;
73919;SDS011;62266;53.348;-1.496;2023-05-20T00:20:16;19.07;;;10.17;;
73919;SDS011;62266;53.348;-1.496;2023-05-20T00:23:56;19.45;;;10.55;;
73919;SDS011;62266;53.348;-1.496;2023-05-20T01:17:50;23.73;;;10.55;;
73919;SDS011;62266;53.348;-1.496;2023-05-20T01:20:37;22.05;;;11.38;;
73919;SDS011;62266;53.348;-1.496;2023-05-20T01:26:33;18.50;;;9.40;;
73919;SDS011;62266;53.348;-1.496;2023-05-20T01:29:21;19.83;;;9.70;;
73919;SDS011;62266;53.348;-1.496;2023-05-20T01:51:22;19.00;;;9.98;;
73919;SDS011;62266;53.348;-1.496;2023-05-20T01:54:13;20.67;;;10.10;;
73919;SDS011;62266;53.348;-1.496;2023-05-20T02:04:53;18.50;;;10.05;;
73919;SDS011;62266;53.348;-1.496;2023-05-20T02:07:37;19.38;;;10.10;;
73919;SDS011;62266;53.348;-1.496;2023-05-20T02:10:21;19.20;;;9.73;;
73919;SDS011;62266;53.348;-1.496;2023-05-20T02:13:05;16.10;;;9.05;;
73919;SDS011;62266;53.348;-1.496;2023-05-20T02:15:49;17.15;;;9.57;;
73919;SDS011;62266;53.348;-1.496;2023-05-20T02:18:34;17.92;;;8.65;;
73919;SDS011;62266;53.348;-1.496;2023-05-20T02:21:18;19.08;;;9.38;;
73919;SDS011;62266;53.348;-1.496;2023-05-20T02:35:09;19.48;;;8.75;;
73919;SDS011;62266;53.348;-1.496;2023-05-20T03:37:03;19.98;;;9.25;;
73919;SDS011;62266;53.348;-1.496;2023-05-20T03:39:50;19.77;;;10.45;;
73919;SDS011;62266;53.348;-1.496;2023-05-20T03:45:09;17.13;;;9.50;;
73919;SDS011;62266;53.348;-1.496;2023-05-20T03:50:39;18.45;;;9.48;;
73919;SDS011;62266;53.348;-1.496;2023-05-20T03:53:24;19.13;;;9.82;;
73919;SDS011;62266;53.348;-1.496;2023-05-20T03:56:08;18.15;;;10.57;;
73919;SDS011;62266;53.348;-1.496;2023-05-20T03:58:52;19.37;;;9.73;;
73919;SDS011;62266;53.348;-1.496;2023-05-20T04:01:37;16.35;;;9.48;;
73919;SDS011;62266;53.348;-1.496;2023-05-20T04:04:21;17.95;;;8.85;;
73919;SDS011;62266;53.348;-1.496;2023-05-20T04:07:06;20.17;;;9.48;;
73919;SDS011;62266;53.348;-1.496;2023-05-20T04:12:25;18.23;;;9.17;;
73919;SDS011;62266;53.348;-1.496;2023-05-20T04:15:13;21.02;;;9.15;;
73919;SDS011;62266;53.348;-1.496;2023-05-20T04:18:06;20.60;;;10.40;;
73919;SDS011;62266;53.348;-1.496;2023-05-20T04:20:47;18.55;;;9.38;;
73919;SDS011;62266;53.348;-1.496;2023-05-20T04:23:31;18.95;;;9.55;;
73919;SDS011;62266;53.348;-1.496;2023-05-20T04:26:18;19.47;;;9.27;;
73919;SDS011;62266;53.348;-1.496;2023-05-20T04:29:03;17.83;;;9.77;;
73919;SDS011;62266;53.348;-1.496;2023-05-20T04:31:47;16.98;;;9.20;;
73919;SDS011;62266;53.348;-1.496;2023-05-20T04:34:32;19.17;;;9.05;;
73919;SDS011;62266;53.348;-1.496;2023-05-20T04:37:20;19.38;;;9.68;;
73919;SDS011;62266;53.348;-1.496;2023-05-20T04:40:05;17.60;;;9.20;;
73919;SDS011;62266;53.348;-1.496;2023-05-20T04:42:51;18.02;;;9.05;;
73919;SDS011;62266;53.348;-1.496;2023-05-20T04:45:35;17.90;;;9.30;;
73919;SDS011;62266;53.348;-1.496;2023-05-20T04:48:19;15.98;;;9.27;;
73919;SDS011;62266;53.348;-1.496;2023-05-20T04:51:05;19.02;;;9.85;;
73919;SDS011;62266;53.348;-1.496;2023-05-20T04:53:53;21.97;;;9.97;;
73919;SDS011;62266;53.348;-1.496;2023-05-20T04:56:39;19.23;;;10.48;;
73919;SDS011;62266;53.348;-1.496;2023-05-20T05:00:02;21.58;;;11.05;;
73919;SDS011;62266;53.348;-1.496;2023-05-20T05:10:57;28.40;;;13.40;;
73919;SDS011;62266;53.348;-1.496;2023-05-20T05:13:41;35.35;;;13.95;;
73919;SDS011;62266;53.348;-1.496;2023-05-20T05:16:26;30.77;;;14.02;;
73919;SDS011;62266;53.348;-1.496;2023-05-20T05:19:10;29.80;;;14.13;;
73919;SDS011;62266;53.348;-1.496;2023-05-20T05:22:04;33.37;;;14.50;;
73919;SDS011;62266;53.348;-1.496;2023-05-20T05:24:52;33.10;;;14.98;;
73919;SDS011;62266;53.348;-1.496;2023-05-20T05:27:58;31.02;;;13.60;;
73919;SDS011;62266;53.348;-1.496;2023-05-20T05:30:42;38.15;;;16.25;;
73919;SDS011;62266;53.348;-1.496;2023-05-20T05:33:26;35.72;;;16.02;;
73919;SDS011;62266;53.348;-1.496;2023-05-20T05:36:10;35.37;;;16.87;;
73919;SDS011;62266;53.348;-1.496;2023-05-20T05:38:54;39.42;;;17.52;;
73919;SDS011;62266;53.348;-1.496;2023-05-20T05:41:39;37.53;;;17.58;;
73919;SDS011;62266;53.348;-1.496;2023-05-20T05:44:23;39.10;;;18.23;;
73919;SDS011;62266;53.348;-1.496;2023-05-20T05:47:07;39.00;;;18.77;;
73919;SDS011;62266;53.348;-1.496;2023-05-20T05:49:50;41.90;;;18.20;;
73919;SDS011;62266;53.348;-1.496;2023-05-20T05:52:35;39.25;;;18.25;;
73919;SDS011;62266;53.348;-1.496;2023-05-20T05:55:19;35.90;;;17.35;;
73919;SDS011;62266;53.348;-1.496;2023-05-20T05:58:03;45.15;;;19.25;;
73919;SDS011;62266;53.348;-1.496;2023-05-20T06:00:50;39.35;;;17.65;;
73919;SDS011;62266;53.348;-1.496;2023-05-20T06:03:35;38.83;;;17.77;;
73919;SDS011;62266;53.348;-1.496;2023-05-20T06:06:19;40.28;;;18.48;;
73919;SDS011;62266;53.348;-1.496;2023-05-20T06:09:04;39.20;;;17.90;;
73919;SDS011;62266;53.348;-1.496;2023-05-20T06:11:48;35.50;;;16.90;;
73919;SDS011;62266;53.348;-1.496;2023-05-20T06:14:32;36.45;;;16.90;;
73919;SDS011;62266;53.348;-1.496;2023-05-20T06:17:16;30.50;;;15.60;;
73919;SDS011;62266;53.348;-1.496;2023-05-20T06:20:00;33.15;;;16.30;;
73919;SDS011;62266;53.348;-1.496;2023-05-20T06:22:44;37.80;;;16.65;;
73919;SDS011;62266;53.348;-1.496;2023-05-20T06:25:29;35.30;;;16.42;;
73919;SDS011;62266;53.348;-1.496;2023-05-20T06:28:13;36.85;;;17.08;;
73919;SDS011;62266;53.348;-1.496;2023-05-20T06:30:57;33.90;;;16.47;;
73919;SDS011;62266;53.348;-1.496;2023-05-20T06:33:44;37.17;;;16.42;;
73919;SDS011;62266;53.348;-1.496;2023-05-20T06:36:29;34.25;;;16.40;;
73919;SDS011;62266;53.348;-1.496;2023-05-20T06:39:13;37.33;;;17.00;;
73919;SDS011;62266;53.348;-1.496;2023-05-20T06:42:01;33.40;;;16.17;;
73919;SDS011;62266;53.348;-1.496;2023-05-20T06:44:48;33.43;;;15.33;;
73919;SDS011;62266;53.348;-1.496;2023-05-20T06:47:34;34.80;;;17.05;;
73919;SDS011;62266;53.348;-1.496;2023-05-20T06:50:19;36.28;;;17.35;;
73919;SDS011;62266;53.348;-1.496;2023-05-20T06:53:04;33.38;;;15.25;;
73919;SDS011;62266;53.348;-1.496;2023-05-20T06:55:48;38.75;;;17.23;;
73919;SDS011;62266;53.348;-1.496;2023-05-20T06:58:35;35.37;;;17.33;;
73919;SDS011;62266;53.348;-1.496;2023-05-20T07:01:22;38.80;;;17.98;;
73919;SDS011;62266;53.348;-1.496;2023-05-20T07:04:12;33.58;;;17.30;;
73919;SDS011;62266;53.348;-1.496;2023-05-20T07:06:59;34.42;;;17.15;;
73919;SDS011;62266;53.348;-1.496;2023-05-20T07:09:44;34.72;;;16.85;;
73919;SDS011;62266;53.348;-1.496;2023-05-20T07:17:52;32.70;;;16.45;;
73919;SDS011;62266;53.348;-1.496;2023-05-20T07:20:37;30.70;;;16.48;;
73919;SDS011;62266;53.348;-1.496;2023-05-20T07:23:21;33.05;;;16.52;;
73919;SDS011;62266;53.348;-1.496;2023-05-20T07:26:06;32.40;;;15.50;;
73919;SDS011;62266;53.348;-1.496;2023-05-20T07:28:50;32.30;;;16.35;;
73919;SDS011;62266;53.348;-1.496;2023-05-20T07:31:35;35.08;;;18.48;;
73919;SDS011;62266;53.348;-1.496;2023-05-20T07:34:18;39.13;;;17.70;;
73919;SDS011;62266;53.348;-1.496;2023-05-20T07:37:03;32.53;;;17.02;;
73919;SDS011;62266;53.348;-1.496;2023-05-20T07:39:49;33.40;;;16.53;;
73919;SDS011;62266;53.348;-1.496;2023-05-20T07:42:33;30.15;;;15.40;;
73919;SDS011;62266;53.348;-1.496;2023-05-20T07:45:18;30.90;;;15.75;;
73919;SDS011;62266;53.348;-1.496;2023-05-20T07:48:02;30.88;;;15.52;;
73919;SDS011;62266;53.348;-1.496;2023-05-20T07:50:47;31.20;;;14.50;;
73919;SDS011;62266;53.348;-1.496;2023-05-20T07:53:31;26.57;;;14.77;;
73919;SDS011;62266;53.348;-1.496;2023-05-20T07:56:16;31.00;;;15.38;;
73919;SDS011;62266;53.348;-1.496;2023-05-20T07:59:00;30.50;;;15.45;;
73919;SDS011;62266;53.348;-1.496;2023-05-20T08:01:45;29.77;;;14.45;;
73919;SDS011;62266;53.348;-1.496;2023-05-20T08:04:29;30.42;;;15.43;;
73919;SDS011;62266;53.348;-1.496;2023-05-20T08:07:14;30.73;;;14.60;;
73919;SDS011;62266;53.348;-1.496;2023-05-20T08:09:58;31.38;;;14.13;;
73919;SDS011;62266;53.348;-1.496;2023-05-20T08:12:42;26.27;;;13.07;;
73919;SDS011;62266;53.348;-1.496;2023-05-20T08:15:26;24.25;;;12.52;;
73919;SDS011;62266;53.348;-1.496;2023-05-20T08:18:10;25.20;;;12.10;;
73919;SDS011;62266;53.348;-1.496;2023-05-20T08:20:55;25.57;;;12.30;;
73919;SDS011;62266;53.348;-1.496;2023-05-20T08:23:39;25.42;;;12.02;;
73919;SDS011;62266;53.348;-1.496;2023-05-20T08:26:22;26.98;;;12.65;;
73919;SDS011;62266;53.348;-1.496;2023-05-20T08:29:07;22.27;;;11.95;;
73919;SDS011;62266;53.348;-1.496;2023-05-20T08:31:51;22.30;;;12.25;;
73919;SDS011;62266;53.348;-1.496;2023-05-20T08:34:36;20.53;;;10.40;;
73919;SDS011;62266;53.348;-1.496;2023-05-20T08:37:26;21.55;;;11.27;;
73919;SDS011;62266;53.348;-1.496;2023-05-20T08:40:12;20.98;;;10.57;;
73919;SDS011;62266;53.348;-1.496;2023-05-20T08:42:56;19.60;;;9.40;;
73919;SDS011;62266;53.348;-1.496;2023-05-20T08:45:42;18.95;;;9.45;;
73919;SDS011;62266;53.348;-1.496;2023-05-20T08:48:25;22.27;;;10.00;;
73919;SDS011;62266;53.348;-1.496;2023-05-20T08:51:11;20.55;;;10.82;;
73919;SDS011;62266;53.348;-1.496;2023-05-20T08:53:58;20.77;;;10.55;;
73919;SDS011;62266;53.348;-1.496;2023-05-20T08:56:45;16.63;;;8.80;;
73919;SDS011;62266;53.348;-1.496;2023-05-20T08:59:29;15.05;;;7.03;;
73919;SDS011;62266;53.348;-1.496;2023-05-20T09:02:13;12.53;;;6.90;;
73919;SDS011;62266;53.348;-1.496;2023-05-20T09:04:57;20.77;;;9.07;;
73919;SDS011;62266;53.348;-1.496;2023-05-20T09:07:41;14.95;;;7.60;;
73919;SDS011;62266;53.348;-1.496;2023-05-20T09:10:26;15.55;;;7.35;;
73919;SDS011;62266;53.348;-1.496;2023-05-20T09:13:10;15.60;;;8.23;;
73919;SDS011;62266;53.348;-1.496;2023-05-20T09:15:54;13.00;;;7.53;;
73919;SDS011;62266;53.348;-1.496;2023-05-20T09:18:38;16.42;;;7.03;;
73919;SDS011;62266;53.348;-1.496;2023-05-20T09:21:27;12.70;;;6.97;;
73919;SDS011;62266;53.348;-1.496;2023-05-20T09:24:12;13.32;;;7.63;;
73919;SDS011;62266;53.348;-1.496;2023-05-20T09:26:56;13.40;;;7.35;;
73919;SDS011;62266;53.348;-1.496;2023-05-20T09:29:41;12.50;;;6.47;;
73919;SDS011;62266;53.348;-1.496;2023-05-20T09:32:26;14.50;;;7.03;;
73919;SDS011;62266;53.348;-1.496;2023-05-20T09:35:12;14.75;;;6.78;;
73919;SDS011;62266;53.348;-1.496;2023-05-20T09:37:57;11.15;;;6.30;;
73919;SDS011;62266;53.348;-1.496;2023-05-20T09:40:41;13.18;;;6.88;;
73919;SDS011;62266;53.348;-1.496;2023-05-20T09:43:30;10.37;;;5.60;;
73919;SDS011;62266;53.348;-1.496;2023-05-20T09:46:14;11.27;;;6.47;;
73919;SDS011;62266;53.348;-1.496;2023-05-20T09:48:59;11.98;;;6.38;;
73919;SDS011;62266;53.348;-1.496;2023-05-20T09:51:44;10.80;;;4.53;;
73919;SDS011;62266;53.348;-1.496;2023-05-20T09:54:28;9.68;;;4.78;;
73919;SDS011;62266;53.348;-1.496;2023-05-20T09:57:13;8.23;;;5.00;;
73919;SDS011;62266;53.348;-1.496;2023-05-20T09:59:57;9.77;;;4.78;;
73919;SDS011;62266;53.348;-1.496;2023-05-20T10:02:46;8.23;;;4.95;;
73919;SDS011;62266;53.348;-1.496;2023-05-20T10:05:31;9.48;;;4.78;;
73919;SDS011;62266;53.348;-1.496;2023-05-20T10:11:51;10.93;;;4.77;;
73919;SDS011;62266;53.348;-1.496;2023-05-20T10:17:52;7.80;;;4.40;;
73919;SDS011;62266;53.348;-1.496;2023-05-20T10:20:57;10.60;;;5.35;;
73919;SDS011;62266;53.348;-1.496;2023-05-20T10:23:41;8.43;;;4.97;;
73919;SDS011;62266;53.348;-1.496;2023-05-20T10:26:33;8.73;;;4.37;;
73919;SDS011;62266;53.348;-1.496;2023-05-20T10:29:19;9.95;;;4.82;;
73919;SDS011;62266;53.348;-1.496;2023-05-20T10:32:05;9.57;;;5.30;;
73919;SDS011;62266;53.348;-1.496;2023-05-20T10:34:49;8.80;;;4.70;;
73919;SDS011;62266;53.348;-1.496;2023-05-20T10:37:40;9.90;;;4.45;;
73919;SDS011;62266;53.348;-1.496;2023-05-20T10:40:25;8.10;;;4.90;;
73919;SDS011;62266;53.348;-1.496;2023-05-20T10:43:14;10.00;;;5.55;;
73919;SDS011;62266;53.348;-1.496;2023-05-20T10:46:01;10.25;;;4.78;;
73919;SDS011;62266;53.348;-1.496;2023-05-20T10:48:45;7.50;;;4.40;;
73919;SDS011;62266;53.348;-1.496;2023-05-20T10:51:29;7.90;;;4.68;;
73919;SDS011;62266;53.348;-1.496;2023-05-20T10:54:20;11.30;;;5.20;;
73919;SDS011;62266;53.348;-1.496;2023-05-20T10:57:07;10.65;;;5.10;;
73919;SDS011;62266;53.348;-1.496;2023-05-20T10:59:52;11.10;;;5.63;;
73919;SDS011;62266;53.348;-1.496;2023-05-20T11:02:36;8.50;;;5.18;;
73919;SDS011;62266;53.348;-1.496;2023-05-20T11:05:21;7.72;;;4.80;;
73919;SDS011;62266;53.348;-1.496;2023-05-20T11:08:06;7.53;;;4.73;;
73919;SDS011;62266;53.348;-1.496;2023-05-20T11:10:51;8.95;;;4.63;;
73919;SDS011;62266;53.348;-1.496;2023-05-20T11:13:35;8.05;;;4.57;;
73919;SDS011;62266;53.348;-1.496;2023-05-20T11:16:22;9.15;;;4.18;;
73919;SDS011;62266;53.348;-1.496;2023-05-20T11:19:06;7.93;;;4.90;;
73919;SDS011;62266;53.348;-1.496;2023-05-20T11:24:42;11.23;;;5.03;;
73919;SDS011;62266;53.348;-1.496;2023-05-20T11:27:26;6.88;;;4.57;;
73919;SDS011;62266;53.348;-1.496;2023-05-20T11:30:14;8.10;;;4.88;;
73919;SDS011;62266;53.348;-1.496;2023-05-20T11:33:03;6.97;;;4.63;;
73919;SDS011;62266;53.348;-1.496;2023-05-20T11:35:50;8.77;;;5.43;;
73919;SDS011;62266;53.348;-1.496;2023-05-20T11:38:35;9.95;;;5.30;;
73919;SDS011;62266;53.348;-1.496;2023-05-20T11:41:23;8.15;;;4.72;;
73919;SDS011;62266;53.348;-1.496;2023-05-20T11:44:10;9.80;;;5.05;;
73919;SDS011;62266;53.348;-1.496;2023-05-20T11:46:59;9.85;;;5.47;;
73919;SDS011;62266;53.348;-1.496;2023-05-20T11:49:46;11.27;;;5.13;;
73919;SDS011;62266;53.348;-1.496;2023-05-20T11:52:32;10.43;;;5.28;;
73919;SDS011;62266;53.348;-1.496;2023-05-20T11:55:17;11.15;;;5.32;;
73919;SDS011;62266;53.348;-1.496;2023-05-20T11:58:02;10.38;;;4.97;;
73919;SDS011;62266;53.348;-1.496;2023-05-20T12:03:37;8.03;;;5.13;;
73919;SDS011;62266;53.348;-1.496;2023-05-20T12:06:21;9.00;;;5.57;;
73919;SDS011;62266;53.348;-1.496;2023-05-20T12:09:11;9.43;;;4.80;;
73919;SDS011;62266;53.348;-1.496;2023-05-20T12:11:57;7.82;;;5.13;;
73919;SDS011;62266;53.348;-1.496;2023-05-20T12:14:42;11.05;;;4.82;;
73919;SDS011;62266;53.348;-1.496;2023-05-20T12:17:26;7.67;;;4.47;;
73919;SDS011;62266;53.348;-1.496;2023-05-20T12:20:11;10.15;;;4.90;;
73919;SDS011;62266;53.348;-1.496;2023-05-20T12:23:00;6.95;;;4.65;;
73919;SDS011;62266;53.348;-1.496;2023-05-20T12:25:44;7.32;;;4.38;;
73919;SDS011;62266;53.348;-1.496;2023-05-20T12:28:32;9.48;;;4.47;;
73919;SDS011;62266;53.348;-1.496;2023-05-20T12:31:16;6.17;;;4.40;;
73919;SDS011;62266;53.348;-1.496;2023-05-20T12:34:00;6.22;;;4.28;;
73919;SDS011;62266;53.348;-1.496;2023-05-20T12:36:44;10.07;;;4.70;;
73919;SDS011;62266;53.348;-1.496;2023-05-20T12:39:29;8.85;;;4.97;;
73919;SDS011;62266;53.348;-1.496;2023-05-20T12:42:13;7.65;;;4.88;;
73919;SDS011;62266;53.348;-1.496;2023-05-20T12:44:58;6.83;;;4.67;;
73919;SDS011;62266;53.348;-1.496;2023-05-20T12:47:42;10.50;;;5.10;;
73919;SDS011;62266;53.348;-1.496;2023-05-20T12:50:26;6.93;;;4.70;;
73919;SDS011;62266;53.348;-1.496;2023-05-20T12:53:10;6.90;;;4.53;;
73919;SDS011;62266;53.348;-1.496;2023-05-20T12:55:54;6.60;;;4.35;;
73919;SDS011;62266;53.348;-1.496;2023-05-20T12:58:38;6.80;;;4.30;;
73919;SDS011;62266;53.348;-1.496;2023-05-20T13:01:22;5.25;;;3.83;;
73919;SDS011;62266;53.348;-1.496;2023-05-20T13:04:06;7.95;;;4.55;;
73919;SDS011;62266;53.348;-1.496;2023-05-20T13:06:50;6.70;;;4.20;;
73919;SDS011;62266;53.348;-1.496;2023-05-20T13:09:34;6.03;;;4.10;;
73919;SDS011;62266;53.348;-1.496;2023-05-20T13:12:19;7.37;;;4.33;;
73919;SDS011;62266;53.348;-1.496;2023-05-20T13:15:03;9.85;;;4.10;;
73919;SDS011;62266;53.348;-1.496;2023-05-20T13:17:48;8.40;;;4.70;;
73919;SDS011;62266;53.348;-1.496;2023-05-20T13:20:32;7.50;;;4.35;;
73919;SDS011;62266;53.348;-1.496;2023-05-20T13:23:16;7.53;;;4.13;;
73919;SDS011;62266;53.348;-1.496;2023-05-20T13:26:00;6.23;;;3.97;;
73919;SDS011;62266;53.348;-1.496;2023-05-20T13:28:44;5.20;;;3.85;;
73919;SDS011;62266;53.348;-1.496;2023-05-20T13:31:28;6.15;;;4.18;;
73919;SDS011;62266;53.348;-1.496;2023-05-20T13:34:12;8.98;;;4.07;;
73919;SDS011;62266;53.348;-1.496;2023-05-20T13:36:56;6.47;;;3.92;;
73919;SDS011;62266;53.348;-1.496;2023-05-20T13:39:40;7.37;;;3.90;;
73919;SDS011;62266;53.348;-1.496;2023-05-20T13:42:24;5.32;;;3.85;;
73919;SDS011;62266;53.348;-1.496;2023-05-20T13:45:11;6.18;;;3.92;;
73919;SDS011;62266;53.348;-1.496;2023-05-20T13:47:55;6.57;;;4.15;;
73919;SDS011;62266;53.348;-1.496;2023-05-20T13:50:40;6.75;;;4.50;;
73919;SDS011;62266;53.348;-1.496;2023-05-20T13:53:24;5.93;;;3.90;;
73919;SDS011;62266;53.348;-1.496;2023-05-20T13:56:08;6.05;;;4.10;;
73919;SDS011;62266;53.348;-1.496;2023-05-20T13:58:52;7.38;;;4.00;;
73919;SDS011;62266;53.348;-1.496;2023-05-20T14:01:36;6.32;;;3.97;;
73919;SDS011;62266;53.348;-1.496;2023-05-20T14:04:20;5.70;;;4.22;;
73919;SDS011;62266;53.348;-1.496;2023-05-20T14:07:05;6.57;;;4.10;;
73919;SDS011;62266;53.348;-1.496;2023-05-20T14:09:49;7.40;;;4.20;;
73919;SDS011;62266;53.348;-1.496;2023-05-20T14:12:33;6.60;;;4.32;;
73919;SDS011;62266;53.348;-1.496;2023-05-20T14:15:20;6.82;;;4.20;;
73919;SDS011;62266;53.348;-1.496;2023-05-20T14:18:05;7.20;;;3.88;;
73919;SDS011;62266;53.348;-1.496;2023-05-20T14:20:51;8.60;;;4.67;;
73919;SDS011;62266;53.348;-1.496;2023-05-20T14:23:36;6.82;;;4.30;;
73919;SDS011;62266;53.348;-1.496;2023-05-20T14:26:20;5.97;;;4.10;;
73919;SDS011;62266;53.348;-1.496;2023-05-20T14:29:05;6.50;;;4.00;;
73919;SDS011;62266;53.348;-1.496;2023-05-20T14:31:49;6.75;;;4.00;;
73919;SDS011;62266;53.348;-1.496;2023-05-20T14:34:33;7.55;;;4.40;;
73919;SDS011;62266;53.348;-1.496;2023-05-20T14:37:18;5.97;;;4.18;;
73919;SDS011;62266;53.348;-1.496;2023-05-20T14:40:03;6.93;;;4.20;;
73919;SDS011;62266;53.348;-1.496;2023-05-20T14:42:47;6.93;;;4.10;;
73919;SDS011;62266;53.348;-1.496;2023-05-20T14:45:32;6.45;;;4.30;;
73919;SDS011;62266;53.348;-1.496;2023-05-20T14:48:16;7.13;;;4.53;;
73919;SDS011;62266;53.348;-1.496;2023-05-20T14:51:00;7.68;;;4.70;;
73919;SDS011;62266;53.348;-1.496;2023-05-20T14:53:44;5.70;;;4.00;;
73919;SDS011;62266;53.348;-1.496;2023-05-20T14:56:28;5.20;;;3.90;;
73919;SDS011;62266;53.348;-1.496;2023-05-20T14:59:13;6.15;;;4.22;;
73919;SDS011;62266;53.348;-1.496;2023-05-20T15:01:58;5.82;;;4.25;;
73919;SDS011;62266;53.348;-1.496;2023-05-20T15:04:42;6.22;;;4.18;;
73919;SDS011;62266;53.348;-1.496;2023-05-20T15:07:29;6.40;;;4.43;;
73919;SDS011;62266;53.348;-1.496;2023-05-20T15:10:13;7.38;;;4.00;;
73919;SDS011;62266;53.348;-1.496;2023-05-20T15:12:58;7.45;;;4.30;;
73919;SDS011;62266;53.348;-1.496;2023-05-20T15:15:43;6.32;;;4.10;;
73919;SDS011;62266;53.348;-1.496;2023-05-20T15:18:27;4.32;;;3.50;;
73919;SDS011;62266;53.348;-1.496;2023-05-20T15:21:11;5.33;;;3.73;;
73919;SDS011;62266;53.348;-1.496;2023-05-20T15:23:56;4.95;;;3.60;;
73919;SDS011;62266;53.348;-1.496;2023-05-20T15:26:40;5.88;;;3.80;;
73919;SDS011;62266;53.348;-1.496;2023-05-20T15:29:25;6.60;;;3.70;;
73919;SDS011;62266;53.348;-1.496;2023-05-20T15:32:09;5.07;;;3.60;;
73919;SDS011;62266;53.348;-1.496;2023-05-20T15:34:54;6.37;;;3.30;;
73919;SDS011;62266;53.348;-1.496;2023-05-20T15:37:41;7.20;;;4.47;;
73919;SDS011;62266;53.348;-1.496;2023-05-20T15:40:25;5.10;;;3.75;;
73919;SDS011;62266;53.348;-1.496;2023-05-20T15:43:10;6.13;;;3.58;;
73919;SDS011;62266;53.348;-1.496;2023-05-20T15:45:55;4.82;;;3.47;;
73919;SDS011;62266;53.348;-1.496;2023-05-20T15:48:39;5.60;;;2.90;;
73919;SDS011;62266;53.348;-1.496;2023-05-20T15:51:23;5.43;;;3.10;;
73919;SDS011;62266;53.348;-1.496;2023-05-20T15:54:08;4.70;;;3.15;;
73919;SDS011;62266;53.348;-1.496;2023-05-20T15:56:52;4.57;;;3.35;;
73919;SDS011;62266;53.348;-1.496;2023-05-20T15:59:37;6.05;;;3.97;;
73919;SDS011;62266;53.348;-1.496;2023-05-20T16:02:21;5.83;;;3.27;;
73919;SDS011;62266;53.348;-1.496;2023-05-20T16:05:05;5.97;;;3.85;;
73919;SDS011;62266;53.348;-1.496;2023-05-20T16:07:51;5.38;;;3.15;;
73919;SDS011;62266;53.348;-1.496;2023-05-20T16:10:35;5.20;;;3.67;;
73919;SDS011;62266;53.348;-1.496;2023-05-20T16:13:19;6.55;;;3.45;;
73919;SDS011;62266;53.348;-1.496;2023-05-20T16:16:04;7.70;;;4.83;;
73919;SDS011;62266;53.348;-1.496;2023-05-20T16:18:49;6.05;;;3.30;;
73919;SDS011;62266;53.348;-1.496;2023-05-20T16:21:33;7.63;;;4.75;;
73919;SDS011;62266;53.348;-1.496;2023-05-20T16:24:17;4.05;;;3.30;;
73919;SDS011;62266;53.348;-1.496;2023-05-20T16:27:03;4.70;;;3.17;;
73919;SDS011;62266;53.348;-1.496;2023-05-20T16:29:48;6.60;;;3.50;;
73919;SDS011;62266;53.348;-1.496;2023-05-20T16:32:33;5.75;;;3.08;;
73919;SDS011;62266;53.348;-1.496;2023-05-20T16:35:17;6.10;;;2.80;;
73919;SDS011;62266;53.348;-1.496;2023-05-20T16:38:01;6.07;;;2.85;;
73919;SDS011;62266;53.348;-1.496;2023-05-20T16:40:45;7.07;;;2.80;;
73919;SDS011;62266;53.348;-1.496;2023-05-20T16:43:29;5.17;;;2.60;;
73919;SDS011;62266;53.348;-1.496;2023-05-20T16:46:13;6.60;;;2.42;;
73919;SDS011;62266;53.348;-1.496;2023-05-20T16:48:57;3.35;;;2.17;;
73919;SDS011;62266;53.348;-1.496;2023-05-20T16:51:43;4.15;;;2.63;;
73919;SDS011;62266;53.348;-1.496;2023-05-20T16:54:27;4.68;;;2.20;;
73919;SDS011;62266;53.348;-1.496;2023-05-20T16:57:11;5.33;;;3.43;;
73919;SDS011;62266;53.348;-1.496;2023-05-20T16:59:58;8.27;;;5.20;;
73919;SDS011;62266;53.348;-1.496;2023-05-20T17:02:42;7.22;;;5.72;;
73919;SDS011;62266;53.348;-1.496;2023-05-20T17:05:27;9.13;;;2.80;;
73919;SDS011;62266;53.348;-1.496;2023-05-20T17:08:11;10.35;;;8.10;;
73919;SDS011;62266;53.348;-1.496;2023-05-20T17:10:55;5.50;;;3.13;;
73919;SDS011;62266;53.348;-1.496;2023-05-20T17:13:39;8.15;;;4.10;;
73919;SDS011;62266;53.348;-1.496;2023-05-20T17:16:24;5.35;;;2.95;;
73919;SDS011;62266;53.348;-1.496;2023-05-20T17:19:08;7.88;;;3.85;;
73919;SDS011;62266;53.348;-1.496;2023-05-20T17:21:52;6.50;;;2.97;;
73919;SDS011;62266;53.348;-1.496;2023-05-20T17:24:37;6.50;;;2.50;;
73919;SDS011;62266;53.348;-1.496;2023-05-20T17:27:21;5.20;;;2.40;;
73919;SDS011;62266;53.348;-1.496;2023-05-20T17:30:07;5.38;;;2.10;;
73919;SDS011;62266;53.348;-1.496;2023-05-20T17:32:52;3.33;;;1.83;;
73919;SDS011;62266;53.348;-1.496;2023-05-20T17:35:37;4.45;;;2.67;;
73919;SDS011;62266;53.348;-1.496;2023-05-20T17:38:23;4.77;;;2.17;;
73919;SDS011;62266;53.348;-1.496;2023-05-20T17:41:10;6.03;;;3.67;;
73919;SDS011;62266;53.348;-1.496;2023-05-20T17:43:55;5.00;;;2.00;;
73919;SDS011;62266;53.348;-1.496;2023-05-20T17:46:39;4.25;;;1.58;;
73919;SDS011;62266;53.348;-1.496;2023-05-20T17:49:23;3.80;;;1.77;;
73919;SDS011;62266;53.348;-1.496;2023-05-20T17:52:07;4.27;;;1.73;;
73919;SDS011;62266;53.348;-1.496;2023-05-20T17:54:52;5.93;;;1.75;;
73919;SDS011;62266;53.348;-1.496;2023-05-20T17:57:36;3.55;;;1.80;;
73919;SDS011;62266;53.348;-1.496;2023-05-20T18:00:20;3.80;;;1.90;;
73919;SDS011;62266;53.348;-1.496;2023-05-20T18:03:04;3.15;;;1.63;;
73919;SDS011;62266;53.348;-1.496;2023-05-20T18:05:48;3.87;;;1.93;;
73919;SDS011;62266;53.348;-1.496;2023-05-20T18:08:32;3.30;;;1.75;;
73919;SDS011;62266;53.348;-1.496;2023-05-20T18:11:16;4.95;;;1.70;;
73919;SDS011;62266;53.348;-1.496;2023-05-20T18:14:01;2.90;;;1.65;;
73919;SDS011;62266;53.348;-1.496;2023-05-20T18:16:48;2.47;;;1.70;;
73919;SDS011;62266;53.348;-1.496;2023-05-20T18:19:37;4.57;;;2.13;;
73919;SDS011;62266;53.348;-1.496;2023-05-20T18:22:21;3.03;;;1.50;;
73919;SDS011;62266;53.348;-1.496;2023-05-20T18:25:05;2.85;;;1.45;;
73919;SDS011;62266;53.348;-1.496;2023-05-20T18:27:49;3.42;;;1.48;;
73919;SDS011;62266;53.348;-1.496;2023-05-20T18:30:34;2.95;;;1.42;;
73919;SDS011;62266;53.348;-1.496;2023-05-20T18:33:18;4.03;;;1.63;;
73919;SDS011;62266;53.348;-1.496;2023-05-20T18:36:03;3.10;;;1.65;;
73919;SDS011;62266;53.348;-1.496;2023-05-20T18:38:48;5.07;;;1.63;;
73919;SDS011;62266;53.348;-1.496;2023-05-20T18:41:32;2.63;;;1.50;;
73919;SDS011;62266;53.348;-1.496;2023-05-20T18:44:16;4.45;;;2.10;;
73919;SDS011;62266;53.348;-1.496;2023-05-20T18:47:01;3.97;;;1.63;;
73919;SDS011;62266;53.348;-1.496;2023-05-20T18:49:45;5.57;;;1.55;;
73919;SDS011;62266;53.348;-1.496;2023-05-20T18:52:30;3.30;;;1.73;;
73919;SDS011;62266;53.348;-1.496;2023-05-20T18:55:13;3.15;;;1.70;;
73919;SDS011;62266;53.348;-1.496;2023-05-20T18:57:58;2.97;;;1.58;;
73919;SDS011;62266;53.348;-1.496;2023-05-20T19:00:42;2.87;;;1.70;;
73919;SDS011;62266;53.348;-1.496;2023-05-20T19:03:26;4.53;;;1.65;;
73919;SDS011;62266;53.348;-1.496;2023-05-20T19:06:10;2.72;;;1.80;;
73919;SDS011;62266;53.348;-1.496;2023-05-20T19:08:57;4.72;;;1.80;;
73919;SDS011;62266;53.348;-1.496;2023-05-20T19:11:41;4.93;;;1.95;;
73919;SDS011;62266;53.348;-1.496;2023-05-20T19:14:25;3.87;;;1.90;;
73919;SDS011;62266;53.348;-1.496;2023-05-20T19:17:09;3.85;;;1.90;;